createdAt,value
2024-01-15T00:00:18.040Z,19.02
2024-01-15T00:02:44.861Z,22.50
2024-01-15T00:05:11.617Z,19.50
2024-01-15T00:07:38.486Z,19.27
2024-01-15T00:10:05.740Z,19.05
2024-01-15T00:12:33.322Z,17.63
2024-01-15T00:15:00.223Z,17.85
2024-01-15T00:17:26.947Z,18.30
2024-01-15T00:19:53.950Z,19.58
2024-01-15T00:22:20.920Z,20.10
2024-01-15T00:24:47.853Z,19.27
2024-01-15T00:27:14.748Z,21.83
2024-01-15T00:29:41.539Z,19.63
2024-01-15T00:32:08.256Z,21.92
2024-01-15T00:34:35.171Z,19.10
2024-01-15T00:37:01.886Z,20.48
2024-01-15T00:39:28.700Z,19.27
2024-01-15T00:41:55.323Z,20.77
2024-01-15T00:44:21.991Z,20.10
2024-01-15T00:46:48.773Z,19.42
2024-01-15T00:49:15.947Z,20.55
2024-01-15T00:51:42.855Z,19.02
2024-01-15T00:54:09.828Z,18.65
2024-01-15T00:56:37.899Z,18.50
2024-01-15T00:59:04.680Z,20.73
2024-01-15T01:01:31.506Z,19.10
2024-01-15T01:03:58.602Z,16.95
2024-01-15T01:06:26.102Z,17.10
2024-01-15T01:08:52.898Z,16.10
2024-01-15T01:11:19.631Z,17.00
2024-01-15T01:13:46.341Z,17.48
2024-01-15T01:16:13.071Z,15.95
2024-01-15T01:18:40.248Z,17.35
2024-01-15T01:21:07.156Z,15.98
2024-01-15T01:23:33.936Z,15.30
2024-01-15T01:26:00.721Z,14.88
2024-01-15T01:28:27.501Z,18.10
2024-01-15T01:30:54.314Z,14.88
2024-01-15T01:33:21.624Z,14.48
2024-01-15T01:35:48.693Z,16.13
2024-01-15T01:38:15.441Z,14.63
2024-01-15T01:40:42.082Z,15.63
2024-01-15T01:43:10.424Z,15.20
2024-01-15T01:45:37.450Z,12.88
2024-01-15T01:48:05.579Z,13.20
2024-01-15T01:50:33.004Z,11.70
2024-01-15T01:53:00.691Z,12.98
2024-01-15T01:55:29.053Z,12.40
2024-01-15T01:57:56.658Z,11.98
2024-01-15T02:00:23.614Z,12.43
2024-01-15T02:02:50.866Z,11.65
2024-01-15T02:05:20.469Z,13.68
2024-01-15T02:07:47.281Z,13.52
2024-01-15T02:10:14.887Z,12.77
2024-01-15T02:12:41.697Z,14.48
2024-01-15T02:15:08.797Z,12.57
2024-01-15T02:17:35.648Z,14.10
2024-01-15T02:20:02.783Z,10.65
2024-01-15T02:22:29.584Z,11.65
2024-01-15T02:24:56.301Z,10.90
2024-01-15T02:27:22.998Z,10.95
2024-01-15T02:29:49.978Z,10.13
2024-01-15T02:32:16.755Z,11.32
2024-01-15T02:34:43.641Z,9.68
2024-01-15T02:37:10.457Z,9.98
2024-01-15T02:39:37.150Z,8.98
2024-01-15T02:42:03.927Z,10.18
2024-01-15T02:44:30.591Z,9.48
2024-01-15T02:46:57.238Z,9.98
2024-01-15T02:49:23.926Z,9.20
2024-01-15T02:51:50.803Z,8.98
2024-01-15T02:54:17.596Z,8.77
2024-01-15T02:56:44.419Z,7.70
2024-01-15T02:59:11.087Z,9.65
2024-01-15T03:01:38.241Z,8.60
2024-01-15T03:04:05.094Z,8.10
2024-01-15T03:06:32.010Z,8.38
2024-01-15T03:08:58.723Z,8.38
2024-01-15T03:11:25.871Z,8.13
2024-01-15T03:13:52.573Z,7.88
2024-01-15T03:16:21.035Z,7.40
2024-01-15T03:18:47.822Z,8.15
2024-01-15T03:21:14.695Z,8.57
2024-01-15T03:23:41.330Z,6.82
2024-01-15T03:26:08.081Z,7.20
2024-01-15T03:28:34.871Z,7.10
2024-01-15T03:31:01.770Z,6.90
2024-01-15T03:33:28.590Z,7.43
2024-01-15T03:35:55.506Z,6.78
2024-01-15T03:38:22.164Z,7.60
2024-01-15T03:40:49.023Z,7.35
2024-01-15T03:43:15.786Z,8.52
2024-01-15T03:45:42.616Z,7.82
2024-01-15T03:48:09.489Z,8.35
2024-01-15T03:50:36.613Z,7.32
2024-01-15T03:53:03.438Z,6.80
2024-01-15T03:55:30.250Z,8.52
2024-01-15T03:57:57.189Z,8.07
2024-01-15T04:00:24.425Z,7.97
2024-01-15T04:02:51.153Z,7.20
2024-01-15T04:05:17.948Z,7.70
2024-01-15T04:07:44.629Z,7.50
2024-01-15T04:10:11.439Z,6.60
2024-01-15T04:12:38.213Z,6.47
2024-01-15T04:15:05.342Z,6.05
2024-01-15T04:17:32.078Z,6.40
2024-01-15T04:19:58.895Z,7.60
2024-01-15T04:22:26.406Z,5.50
2024-01-15T04:24:53.125Z,5.68
2024-01-15T04:27:20.006Z,6.93
2024-01-15T04:29:46.879Z,7.15
2024-01-15T04:32:13.601Z,7.35
2024-01-15T04:34:40.653Z,6.50
2024-01-15T04:37:07.507Z,5.55
2024-01-15T04:39:34.278Z,6.35
2024-01-15T04:42:01.070Z,6.78
2024-01-15T04:44:27.948Z,7.80
2024-01-15T04:46:54.621Z,7.05
2024-01-15T04:49:21.568Z,6.38
2024-01-15T04:51:48.365Z,7.50
2024-01-15T04:54:18.880Z,5.47
2024-01-15T04:59:15.531Z,6.20
2024-01-15T05:01:42.928Z,5.90
2024-01-15T05:04:09.685Z,6.68
2024-01-15T05:06:36.505Z,6.68
2024-01-15T05:09:04.619Z,6.85
2024-01-15T05:11:50.198Z,5.88
2024-01-15T05:14:35.567Z,6.63
2024-01-15T05:17:02.308Z,5.82
2024-01-15T05:19:29.122Z,5.70
2024-01-15T05:21:56.165Z,5.72
2024-01-15T05:24:23.029Z,5.25
2024-01-15T05:27:08.301Z,5.55
2024-01-15T05:29:35.028Z,6.63
2024-01-15T05:32:02.690Z,6.07
2024-01-15T05:34:29.887Z,7.00
2024-01-15T05:36:56.656Z,6.45
2024-01-15T05:39:24.207Z,5.63
2024-01-15T05:41:51.167Z,6.00
2024-01-15T05:44:18.008Z,7.18
2024-01-15T05:46:44.661Z,6.53
2024-01-15T05:49:11.615Z,6.60
2024-01-15T05:51:38.668Z,6.45
2024-01-15T05:54:23.896Z,7.57
2024-01-15T05:56:50.902Z,5.40
2024-01-15T05:59:18.123Z,5.78
2024-01-15T06:01:44.893Z,5.22
2024-01-15T06:04:11.839Z,5.32
2024-01-15T06:06:38.697Z,8.75
2024-01-15T06:09:08.473Z,6.45
2024-01-15T06:11:35.748Z,5.38
2024-01-15T06:14:02.449Z,4.85
2024-01-15T06:16:29.981Z,5.40
2024-01-15T06:18:56.782Z,5.00
2024-01-15T06:21:23.814Z,4.60
2024-01-15T06:23:50.609Z,5.60
2024-01-15T06:26:17.379Z,4.57
2024-01-15T06:28:44.051Z,5.10
2024-01-15T06:31:11.344Z,5.07
2024-01-15T06:33:39.249Z,4.32
2024-01-15T06:36:06.924Z,4.68
2024-01-15T06:38:33.666Z,4.65
2024-01-15T06:41:00.742Z,4.38
2024-01-15T06:43:27.494Z,4.18
2024-01-15T06:45:54.327Z,4.30
2024-01-15T06:48:21.212Z,4.55
2024-01-15T06:50:48.054Z,4.47
2024-01-15T06:53:14.680Z,4.00
2024-01-15T06:55:41.433Z,4.25
2024-01-15T06:58:08.101Z,4.95
2024-01-15T07:00:34.959Z,4.20
2024-01-15T07:03:01.779Z,4.05
2024-01-15T07:05:28.723Z,4.63
2024-01-15T07:07:55.477Z,4.85
2024-01-15T07:10:22.251Z,4.35
2024-01-15T07:12:49.164Z,4.30
2024-01-15T07:15:17.029Z,4.60
2024-01-15T07:17:44.020Z,4.70
2024-01-15T07:20:11.414Z,3.72
2024-01-15T07:22:38.501Z,3.63
2024-01-15T07:25:06.171Z,4.13
2024-01-15T07:27:33.208Z,4.03
2024-01-15T07:30:02.554Z,4.78
2024-01-15T07:32:30.174Z,3.92
2024-01-15T07:34:57.055Z,5.43
2024-01-15T07:37:24.429Z,5.53
2024-01-15T07:39:51.168Z,5.22
2024-01-15T07:42:18.034Z,14.90
2024-01-15T07:44:44.668Z,6.82
2024-01-15T07:47:11.458Z,5.55
2024-01-15T07:49:39.605Z,5.80
2024-01-15T07:52:06.510Z,5.55
2024-01-15T07:54:33.590Z,6.70
2024-01-15T07:57:01.889Z,6.20
2024-01-15T07:59:28.577Z,5.47
2024-01-15T08:01:55.595Z,6.10
2024-01-15T08:04:25.416Z,5.20
2024-01-15T08:06:52.385Z,6.20
2024-01-15T08:09:19.143Z,4.95
2024-01-15T08:11:45.973Z,5.30
2024-01-15T08:14:13.044Z,4.47
2024-01-15T08:16:40.016Z,4.07
2024-01-15T08:19:06.941Z,5.55
2024-01-15T08:21:34.037Z,4.90
2024-01-15T08:24:01.934Z,4.97
2024-01-15T08:26:28.869Z,5.90
2024-01-15T08:28:55.981Z,4.07
2024-01-15T08:31:23.381Z,3.45
2024-01-15T08:33:50.140Z,6.53
2024-01-15T08:36:17.205Z,5.00
2024-01-15T08:38:43.950Z,4.53
2024-01-15T08:41:10.689Z,5.32
2024-01-15T08:43:37.339Z,4.88
2024-01-15T08:46:04.853Z,5.15
2024-01-15T08:48:31.714Z,5.15
2024-01-15T08:50:58.541Z,3.45
2024-01-15T08:53:25.346Z,4.68
2024-01-15T08:55:52.115Z,6.32
2024-01-15T08:58:19.111Z,5.75
2024-01-15T09:00:46.219Z,7.30
2024-01-15T09:03:13.193Z,5.72
2024-01-15T09:05:41.480Z,8.18
2024-01-15T09:08:08.178Z,7.13
2024-01-15T09:10:34.941Z,6.05
2024-01-15T09:13:01.726Z,7.07
2024-01-15T09:15:29.048Z,6.10
2024-01-15T09:17:55.945Z,5.57
2024-01-15T09:20:22.721Z,5.82
2024-01-15T09:22:49.914Z,5.47
2024-01-15T09:25:16.790Z,6.07
2024-01-15T09:27:43.546Z,6.45
2024-01-15T09:30:11.034Z,6.32
2024-01-15T09:32:38.020Z,7.78
2024-01-15T09:35:05.192Z,7.05
2024-01-15T09:37:41.846Z,6.15
2024-01-15T09:40:18.203Z,6.20
2024-01-15T09:42:47.153Z,6.75
2024-01-15T09:45:14.712Z,7.38
2024-01-15T09:48:00.040Z,7.45
2024-01-15T09:50:27.565Z,6.20
2024-01-15T09:52:55.369Z,5.60
2024-01-15T09:55:22.429Z,6.10
2024-01-15T09:57:49.642Z,6.00
2024-01-15T10:00:19.125Z,6.63
2024-01-15T10:02:45.923Z,6.13
2024-01-15T10:05:12.639Z,5.85
2024-01-15T10:07:40.825Z,6.00
2024-01-15T10:10:08.746Z,6.95
2024-01-15T10:12:36.038Z,6.07
2024-01-15T10:15:02.872Z,6.20
2024-01-15T10:17:29.790Z,6.65
2024-01-15T10:19:56.796Z,7.03
2024-01-15T10:22:24.354Z,5.55
2024-01-15T10:24:51.383Z,5.78
2024-01-15T10:27:18.244Z,4.63
2024-01-15T10:29:45.126Z,5.75
2024-01-15T10:32:12.773Z,6.55
2024-01-15T10:34:44.581Z,5.80
2024-01-15T10:37:11.612Z,5.20
2024-01-15T10:39:39.017Z,5.18
2024-01-15T10:42:07.501Z,5.35
2024-01-15T10:44:34.576Z,4.75
2024-01-15T10:47:01.842Z,5.38
2024-01-15T10:49:32.726Z,5.38
2024-01-15T10:52:02.013Z,5.07
2024-01-15T10:54:30.554Z,4.55
2024-01-15T10:56:58.089Z,5.78
2024-01-15T10:59:25.170Z,5.03
2024-01-15T11:01:56.206Z,5.28
2024-01-15T11:04:24.954Z,5.45
2024-01-15T11:06:57.933Z,6.00
2024-01-15T11:09:25.738Z,6.32
2024-01-15T11:12:07.884Z,5.50
2024-01-15T11:14:58.426Z,5.18
2024-01-15T11:17:25.264Z,5.60
2024-01-15T11:19:52.721Z,6.40
2024-01-15T11:22:49.635Z,6.35
2024-01-15T11:25:17.424Z,6.63
2024-01-15T11:27:46.088Z,5.22
2024-01-15T11:30:14.017Z,5.53
2024-01-15T11:32:44.707Z,5.47
2024-01-15T11:35:12.334Z,5.45
2024-01-15T11:37:51.635Z,6.55
2024-01-15T11:40:39.832Z,5.68
2024-01-15T11:43:08.050Z,6.45
2024-01-15T11:45:35.309Z,6.28
2024-01-15T11:48:13.116Z,6.75
2024-01-15T11:50:49.007Z,6.95
2024-01-15T11:53:19.490Z,6.35
2024-01-15T11:55:46.930Z,3.97
2024-01-15T11:58:13.866Z,6.00
2024-01-15T12:00:43.128Z,5.47
2024-01-15T12:03:10.760Z,6.25
2024-01-15T12:05:42.221Z,6.18
2024-01-15T12:08:12.612Z,6.22
2024-01-15T12:10:41.902Z,6.25
2024-01-15T12:13:12.013Z,6.45
2024-01-15T12:15:39.713Z,4.90
2024-01-15T12:18:06.816Z,6.50
2024-01-15T12:20:33.968Z,6.53
2024-01-15T12:23:03.508Z,4.80
2024-01-15T12:25:32.629Z,7.07
2024-01-15T12:28:00.279Z,7.78
2024-01-15T12:30:50.097Z,7.45
2024-01-15T12:33:18.907Z,6.93
2024-01-15T12:35:45.707Z,7.47
2024-01-15T12:38:12.943Z,6.72
2024-01-15T12:40:40.350Z,7.05
2024-01-15T12:43:08.379Z,7.65
2024-01-15T12:45:36.853Z,8.85
2024-01-15T12:48:04.890Z,7.75
2024-01-15T12:50:32.014Z,5.90
2024-01-15T12:53:00.747Z,8.15
2024-01-15T12:55:27.642Z,7.43
2024-01-15T12:57:56.184Z,7.75
2024-01-15T13:00:23.539Z,7.80
2024-01-15T13:02:51.086Z,7.53
2024-01-15T13:05:18.535Z,6.57
2024-01-15T13:07:45.534Z,7.10
2024-01-15T13:10:13.035Z,8.57
2024-01-15T13:12:42.514Z,8.52
2024-01-15T13:15:14.638Z,6.80
2024-01-15T13:17:43.224Z,6.95
2024-01-15T13:20:12.465Z,7.28
2024-01-15T13:22:40.972Z,7.38
2024-01-15T13:25:09.301Z,7.82
2024-01-15T13:27:36.883Z,6.65
2024-01-15T13:30:05.053Z,5.18
2024-01-15T13:32:31.909Z,8.07
2024-01-15T13:34:59.274Z,6.72
2024-01-15T13:37:26.221Z,6.50
2024-01-15T13:39:53.964Z,7.93
2024-01-15T13:42:23.696Z,8.65
2024-01-15T13:44:51.165Z,7.30
2024-01-15T13:47:17.921Z,6.55
2024-01-15T13:49:44.813Z,7.30
2024-01-15T13:52:11.584Z,7.82
2024-01-15T13:54:45.901Z,8.90
2024-01-15T13:57:21.091Z,4.50
2024-01-15T13:59:48.238Z,6.63
2024-01-15T14:02:18.161Z,7.07
2024-01-15T14:04:48.466Z,5.43
2024-01-15T14:07:15.334Z,6.55
2024-01-15T14:09:42.126Z,7.05
2024-01-15T14:12:08.877Z,6.35
2024-01-15T14:14:35.607Z,6.25
2024-01-15T14:17:02.281Z,5.30
2024-01-15T14:19:29.522Z,6.45
2024-01-15T14:21:56.793Z,6.43
2024-01-15T14:24:23.679Z,5.47
2024-01-15T14:26:50.391Z,5.82
2024-01-15T14:29:17.199Z,6.60
2024-01-15T14:31:43.912Z,6.03
2024-01-15T14:34:10.897Z,5.93
2024-01-15T14:36:38.326Z,4.85
2024-01-15T14:39:05.898Z,6.45
2024-01-15T14:41:32.698Z,5.53
2024-01-15T14:43:59.608Z,5.68
2024-01-15T14:46:28.197Z,6.05
2024-01-15T14:48:55.201Z,5.63
2024-01-15T14:51:21.993Z,5.45
2024-01-15T14:53:48.786Z,5.80
2024-01-15T14:56:17.519Z,6.53
2024-01-15T14:58:45.472Z,3.88
2024-01-15T15:01:12.452Z,6.10
2024-01-15T15:03:39.378Z,4.43
2024-01-15T15:06:08.579Z,5.35
2024-01-15T15:08:37.354Z,4.75
2024-01-15T15:11:05.094Z,5.30
2024-01-15T15:13:38.444Z,5.10
2024-01-15T15:16:11.919Z,4.53
2024-01-15T15:18:38.970Z,5.25
2024-01-15T15:21:06.071Z,4.25
2024-01-15T15:23:32.876Z,4.97
2024-01-15T15:25:59.950Z,4.82
2024-01-15T15:28:26.620Z,5.63
2024-01-15T15:30:53.473Z,5.03
2024-01-15T15:33:20.337Z,5.10
2024-01-15T15:35:47.163Z,5.18
2024-01-15T15:38:13.902Z,4.68
2024-01-15T15:40:40.789Z,5.35
2024-01-15T15:43:07.609Z,5.38
2024-01-15T15:45:34.474Z,5.38
2024-01-15T15:48:01.262Z,5.50
2024-01-15T15:50:28.866Z,5.65
2024-01-15T15:52:56.966Z,8.13
2024-01-15T15:55:24.794Z,6.30
2024-01-15T15:57:51.505Z,5.93
2024-01-15T16:00:18.648Z,5.10
2024-01-15T16:02:45.360Z,5.97
2024-01-15T16:05:12.339Z,6.32
2024-01-15T16:07:39.356Z,5.50
2024-01-15T16:10:06.633Z,4.70
2024-01-15T16:12:34.159Z,4.75
2024-01-15T16:15:02.209Z,5.60
2024-01-15T16:23:15.919Z,5.35
2024-01-15T16:23:29.870Z,4.78
2024-01-15T16:23:53.879Z,5.18
2024-01-15T16:25:51.947Z,4.78
2024-01-15T16:28:19.249Z,4.30
2024-01-15T16:30:47.977Z,3.72
2024-01-15T16:33:14.976Z,4.07
2024-01-15T16:35:41.883Z,4.30
2024-01-15T16:38:09.327Z,4.53
2024-01-15T16:40:37.774Z,4.55
2024-01-15T16:43:07.591Z,4.88
2024-01-15T16:45:34.261Z,4.60
2024-01-15T16:48:01.607Z,4.90
2024-01-15T16:50:28.670Z,3.90
2024-01-15T16:52:55.419Z,4.20
2024-01-15T16:55:22.608Z,4.40
2024-01-15T16:57:49.657Z,3.97
2024-01-15T17:00:16.958Z,4.18
2024-01-15T17:02:44.191Z,4.13
2024-01-15T17:05:11.175Z,4.30
2024-01-15T17:07:38.154Z,4.07
2024-01-15T17:10:05.906Z,4.00
2024-01-15T17:12:32.548Z,4.63
2024-01-15T17:14:59.296Z,4.07
2024-01-15T17:17:26.030Z,5.38
2024-01-15T17:19:52.810Z,4.65
2024-01-15T17:22:19.482Z,4.28
2024-01-15T17:24:46.279Z,5.03
2024-01-15T17:27:12.911Z,4.65
2024-01-15T17:29:39.665Z,3.70
2024-01-15T17:32:07.534Z,4.80
2024-01-15T17:34:34.472Z,3.97
2024-01-15T17:37:01.314Z,4.03
2024-01-15T17:39:28.162Z,4.55
2024-01-15T17:41:54.920Z,4.47
2024-01-15T17:44:21.806Z,3.55
2024-01-15T17:46:48.515Z,3.72
2024-01-15T17:49:15.346Z,3.97
2024-01-15T17:51:42.082Z,3.75
2024-01-15T17:54:10.237Z,4.25
2024-01-15T17:56:37.331Z,3.78
2024-01-15T17:59:04.320Z,3.97
2024-01-15T18:01:32.634Z,4.00
2024-01-15T18:04:04.272Z,4.13
2024-01-15T18:06:32.247Z,3.72
2024-01-15T18:08:59.109Z,3.83
2024-01-15T18:11:26.038Z,3.83
2024-01-15T18:13:52.926Z,4.03
2024-01-15T18:16:23.985Z,3.85
2024-01-15T18:18:54.031Z,4.53
2024-01-15T18:21:22.662Z,4.13
2024-01-15T18:23:49.807Z,4.72
2024-01-15T18:26:16.942Z,4.70
2024-01-15T18:28:43.761Z,4.82
2024-01-15T18:31:10.506Z,5.57
2024-01-15T18:33:37.475Z,5.05
2024-01-15T18:36:05.179Z,5.30
2024-01-15T18:38:32.058Z,4.60
2024-01-15T18:41:00.452Z,4.68
2024-01-15T18:43:31.028Z,3.40
2024-01-15T18:45:57.770Z,4.03
2024-01-15T18:48:24.595Z,4.50
2024-01-15T18:50:52.602Z,4.25
2024-01-15T18:53:19.347Z,4.20
2024-01-15T18:55:46.067Z,4.30
2024-01-15T18:58:12.851Z,4.25
2024-01-15T19:00:39.529Z,5.03
2024-01-15T19:03:06.929Z,4.18
2024-01-15T19:05:33.717Z,4.65
2024-01-15T19:08:00.718Z,4.65
2024-01-15T19:10:27.819Z,5.03
2024-01-15T19:12:54.531Z,4.55
2024-01-15T19:15:21.470Z,4.65
2024-01-15T19:17:50.031Z,4.32
2024-01-15T19:20:17.276Z,4.63
2024-01-15T19:22:44.064Z,5.13
2024-01-15T19:25:12.763Z,5.65
2024-01-15T19:27:44.381Z,4.43
2024-01-15T19:30:15.754Z,4.60
2024-01-15T19:32:42.701Z,5.35
2024-01-15T19:35:11.152Z,3.97
2024-01-15T19:37:38.960Z,4.93
2024-01-15T19:40:07.808Z,4.65
2024-01-15T19:42:34.581Z,5.07
2024-01-15T19:45:01.292Z,4.82
2024-01-15T19:47:29.330Z,4.82
2024-01-15T19:49:56.044Z,4.45
2024-01-15T19:52:22.806Z,4.28
2024-01-15T19:54:49.474Z,9.43
2024-01-15T19:57:16.543Z,6.40
2024-01-15T19:59:43.842Z,6.25
2024-01-15T20:02:10.690Z,5.93
2024-01-15T20:04:37.425Z,4.57
2024-01-15T20:07:04.462Z,4.18
2024-01-15T20:09:31.234Z,4.97
2024-01-15T20:11:58.031Z,4.25
2024-01-15T20:14:27.072Z,4.55
2024-01-15T20:16:53.973Z,5.03
2024-01-15T20:19:21.028Z,4.68
2024-01-15T20:21:47.829Z,4.85
2024-01-15T20:24:14.715Z,4.68
2024-01-15T20:26:41.933Z,4.65
2024-01-15T20:29:09.561Z,5.00
2024-01-15T20:31:36.449Z,4.88
2024-01-15T20:34:03.629Z,5.15
2024-01-15T20:36:30.387Z,4.78
2024-01-15T20:38:57.587Z,5.43
2024-01-15T20:41:25.876Z,4.68
2024-01-15T20:43:52.828Z,4.28
2024-01-15T20:46:19.560Z,5.40
2024-01-15T20:49:05.087Z,4.88
2024-01-15T20:51:31.957Z,5.25
2024-01-15T20:53:58.620Z,5.40
2024-01-15T20:56:25.470Z,5.20
2024-01-15T20:58:52.281Z,5.43
2024-01-15T21:01:19.224Z,4.72
2024-01-15T21:03:46.175Z,4.75
2024-01-15T21:06:13.347Z,4.88
2024-01-15T21:08:42.412Z,4.88
2024-01-15T21:11:09.270Z,5.82
2024-01-15T21:13:36.181Z,5.25
2024-01-15T21:16:03.146Z,6.50
2024-01-15T21:18:29.989Z,5.88
2024-01-15T21:20:56.766Z,6.88
2024-01-15T21:23:23.632Z,6.05
2024-01-15T21:25:50.833Z,5.57
2024-01-15T21:28:18.412Z,4.82
2024-01-15T21:30:45.308Z,4.95
2024-01-15T21:33:12.431Z,5.15
2024-01-15T21:35:40.949Z,5.35
2024-01-15T21:38:27.120Z,4.97
2024-01-15T21:40:53.971Z,5.43
2024-01-15T21:43:20.597Z,5.72
2024-01-15T21:45:47.388Z,4.57
2024-01-15T21:48:14.935Z,5.60
2024-01-15T21:50:42.656Z,5.50
2024-01-15T21:53:10.226Z,6.35
2024-01-15T21:55:36.944Z,5.30
2024-01-15T21:58:03.898Z,6.03
2024-01-15T22:00:30.639Z,5.13
2024-01-15T22:02:57.489Z,7.05
2024-01-15T22:05:24.248Z,5.60
2024-01-15T22:07:51.041Z,5.30
2024-01-15T22:10:17.763Z,6.07
2024-01-15T22:12:44.842Z,5.30
2024-01-15T22:15:13.996Z,6.18
2024-01-15T22:17:41.152Z,6.40
2024-01-15T22:20:08.831Z,6.03
2024-01-15T22:22:35.937Z,6.03
2024-01-15T22:25:03.080Z,5.72
2024-01-15T22:27:29.849Z,5.47
2024-01-15T22:29:58.059Z,5.80
2024-01-15T22:32:25.684Z,5.90
2024-01-15T22:34:53.271Z,5.70
2024-01-15T22:37:19.930Z,5.30
2024-01-15T22:39:46.694Z,5.95
2024-01-15T22:42:13.389Z,5.55
2024-01-15T22:44:40.310Z,5.53
2024-01-15T22:47:07.091Z,6.28
2024-01-15T22:49:33.945Z,4.95
2024-01-15T22:52:00.610Z,5.43
2024-01-15T22:54:27.313Z,5.28
2024-01-15T22:56:53.998Z,4.82
2024-01-15T22:59:23.243Z,6.00
2024-01-15T23:01:50.267Z,4.70
2024-01-15T23:04:17.164Z,5.22
2024-01-15T23:06:44.060Z,5.82
2024-01-15T23:09:10.714Z,4.38
2024-01-15T23:11:37.854Z,5.40
2024-01-15T23:14:05.222Z,5.85
2024-01-15T23:16:32.060Z,6.43
2024-01-15T23:18:58.947Z,5.47
2024-01-15T23:21:27.416Z,5.32
2024-01-15T23:23:54.465Z,5.22
2024-01-15T23:26:21.607Z,5.25
2024-01-15T23:28:50.854Z,4.70
2024-01-15T23:31:17.672Z,5.72
2024-01-15T23:33:44.516Z,4.78
2024-01-15T23:36:11.425Z,3.83
2024-01-15T23:38:39.530Z,4.43
2024-01-15T23:41:06.454Z,4.63
2024-01-15T23:43:33.498Z,6.20
2024-01-15T23:46:06.704Z,4.22
2024-01-15T23:48:41.570Z,4.82
2024-01-15T23:51:09.608Z,6.07
2024-01-15T23:53:36.466Z,5.10
2024-01-15T23:56:04.546Z,4.93
2024-01-15T23:58:31.528Z,4.78
